Time;durP1;ratioP1;P1;durP2;ratioP2;P2;SDS_P1;SDS_P2;PMS_P1;PMS_P2;Temp;Humidity;BMP_temperature;BMP_pressure;BME280_temperature;BME280_humidity;BME280_pressure;Samples;Min_cycle;Max_cycle;Signal;HPM_P1;HPM_P2
2023/03/18 00:01:19;;;;;;;20.08;4.18;;;;;;;9.84;100.00;98839.66;4934982;28;20058;-79
2023/03/18 00:03:48;;;;;;;21.35;4.07;;;;;;;9.86;100.00;98842.94;4922855;29;20067;-79
2023/03/18 00:06:18;;;;;;;18.52;4.00;;;;;;;9.88;100.00;98846.22;4933166;28;20045;-79
2023/03/18 00:08:49;;;;;;;25.20;3.75;;;;;;;9.91;100.00;98845.88;4934341;28;20041;-78
2023/03/18 00:11:21;;;;;;;17.65;3.45;;;;;;;9.92;100.00;98844.84;4951900;28;20435;-79
2023/03/18 00:13:51;;;;;;;15.98;3.20;;;;;;;9.90;100.00;98843.41;4958652;28;20070;-79
2023/03/18 00:16:20;;;;;;;13.80;2.92;;;;;;;9.85;100.00;98841.31;4965183;28;20034;-79
2023/03/18 00:18:49;;;;;;;16.63;3.40;;;;;;;9.79;100.00;98844.66;4962238;28;20114;-79
2023/03/18 00:21:18;;;;;;;18.55;3.10;;;;;;;9.76;100.00;98842.38;4926958;28;20439;-79
2023/03/18 00:23:47;;;;;;;16.02;2.55;;;;;;;9.71;100.00;98847.38;4945330;28;20039;-79
2023/03/18 00:26:15;;;;;;;16.65;2.70;;;;;;;9.70;100.00;98845.75;4930931;28;20058;-79
2023/03/18 00:28:43;;;;;;;16.50;3.05;;;;;;;9.67;100.00;98852.16;4947234;28;20061;-78
2023/03/18 00:31:14;;;;;;;19.98;3.08;;;;;;;9.69;100.00;98858.09;4941155;28;20040;-79
2023/03/18 00:33:44;;;;;;;12.73;2.85;;;;;;;9.71;100.00;98864.03;4920730;28;20400;-78
2023/03/18 00:36:17;;;;;;;17.70;3.55;;;;;;;9.73;100.00;98861.22;4974670;28;20038;-79
2023/03/18 00:38:49;;;;;;;18.35;2.65;;;;;;;9.73;100.00;98861.22;4934230;28;20070;-79
2023/03/18 00:41:20;;;;;;;23.67;3.88;;;;;;;9.75;100.00;98859.19;4950420;28;20553;-79
2023/03/18 00:43:52;;;;;;;19.77;3.20;;;;;;;9.72;100.00;98855.09;4955666;28;20034;-79
2023/03/18 00:46:21;;;;;;;21.98;4.13;;;;;;;9.68;100.00;98852.00;4954581;28;20038;-79
2023/03/18 00:48:50;;;;;;;14.63;3.17;;;;;;;9.67;100.00;98847.72;4936814;28;20046;-79
2023/03/18 00:51:20;;;;;;;24.60;4.03;;;;;;;9.64;100.00;98857.81;4957295;28;20031;-79
2023/03/18 00:53:50;;;;;;;24.33;3.88;;;;;;;9.62;100.00;98850.06;4943721;29;20527;-79
2023/03/18 00:56:21;;;;;;;15.70;3.10;;;;;;;9.60;100.00;98865.28;4942929;29;20492;-79
2023/03/18 00:58:51;;;;;;;22.85;3.70;;;;;;;9.63;100.00;98864.09;4952454;28;20527;-79
2023/03/18 01:01:19;;;;;;;20.02;3.78;;;;;;;9.59;100.00;98863.59;4929732;29;20038;-79
2023/03/18 01:03:50;;;;;;;29.00;4.55;;;;;;;9.60;100.00;98864.44;4912576;29;20050;-79
2023/03/18 01:06:23;;;;;;;18.00;3.72;;;;;;;9.59;100.00;98870.72;4956824;28;20118;-79
2023/03/18 01:08:52;;;;;;;21.58;4.95;;;;;;;9.58;100.00;98875.16;4949214;28;20035;-79
2023/03/18 01:11:22;;;;;;;27.13;4.13;;;;;;;9.58;100.00;98877.81;4920610;29;20118;-79
2023/03/18 01:13:50;;;;;;;27.33;3.67;;;;;;;9.54;100.00;98868.59;4932583;29;20035;-79
2023/03/18 01:16:20;;;;;;;26.80;4.30;;;;;;;9.52;100.00;98871.41;4949349;28;20110;-80
2023/03/18 01:18:48;;;;;;;20.58;3.33;;;;;;;9.45;100.00;98872.28;4926567;28;20398;-79
2023/03/18 01:21:17;;;;;;;17.27;3.08;;;;;;;9.39;100.00;98865.91;4934372;28;20054;-79
2023/03/18 01:23:51;;;;;;;17.90;2.92;;;;;;;9.33;100.00;98866.63;4933887;29;20046;-79
2023/03/18 01:26:22;;;;;;;23.40;3.50;;;;;;;9.33;100.00;98882.44;4918682;29;20388;-79
2023/03/18 01:28:52;;;;;;;26.65;3.67;;;;;;;9.33;100.00;98877.16;4917011;29;20426;-79
2023/03/18 01:31:23;;;;;;;25.02;3.63;;;;;;;9.33;100.00;98885.06;4949220;28;20031;-79
2023/03/18 01:33:53;;;;;;;25.33;4.07;;;;;;;9.30;100.00;98884.41;4946385;28;20063;-79
2023/03/18 01:36:20;;;;;;;18.35;2.97;;;;;;;9.29;100.00;98890.69;4919403;29;20130;-79
2023/03/18 01:39:01;;;;;;;17.20;3.05;;;;;;;9.26;100.00;98891.03;4916329;29;20038;-79
2023/03/18 01:41:30;;;;;;;21.02;3.25;;;;;;;9.23;100.00;98896.66;4914775;29;20381;-79
2023/03/18 01:43:58;;;;;;;24.15;3.83;;;;;;;9.23;100.00;98898.47;4934216;29;20031;-79
2023/03/18 01:46:44;;;;;;;18.63;2.92;;;;;;;9.21;100.00;98898.66;4914028;28;20044;-79
2023/03/18 01:49:21;;;;;;;12.43;2.60;;;;;;;9.18;100.00;98904.25;4930661;29;20546;-79
2023/03/18 01:51:57;;;;;;;27.75;2.90;;;;;;;9.18;100.00;98907.72;4949974;28;21287;-80
2023/03/18 01:54:30;;;;;;;22.13;2.95;;;;;;;9.17;100.00;98910.53;4957896;28;20042;-79
2023/03/18 01:57:01;;;;;;;19.52;2.58;;;;;;;9.21;100.00;98926.81;4953160;28;20039;-79
2023/03/18 01:59:33;;;;;;;16.27;3.00;;;;;;;9.27;100.00;98924.31;4949299;28;20122;-79
2023/03/18 02:02:13;;;;;;;17.80;2.60;;;;;;;9.33;100.00;98930.72;4922005;28;20038;-79
2023/03/18 02:04:48;;;;;;;11.77;2.30;;;;;;;9.37;100.00;98932.00;4935587;28;20050;-79
2023/03/18 02:07:37;;;;;;;20.38;3.00;;;;;;;9.43;100.00;98938.38;4957770;28;20022;-79
2023/03/18 02:10:13;;;;;;;16.38;2.25;;;;;;;9.43;100.00;98933.94;4948528;28;20109;-79
2023/03/18 02:12:44;;;;;;;10.63;1.70;;;;;;;9.47;100.00;98934.44;4933158;28;20098;-79
2023/03/18 02:15:21;;;;;;;18.23;3.25;;;;;;;9.49;100.00;98937.69;4952690;28;20039;-80
2023/03/18 02:17:58;;;;;;;14.80;2.35;;;;;;;9.51;100.00;98934.88;4941223;28;20105;-79
2023/03/18 02:21:02;;;;;;;10.60;2.00;;;;;;;9.53;100.00;98940.81;4958316;28;20054;-79
2023/03/18 02:24:21;;;;;;;13.73;1.98;;;;;;;9.53;100.00;98941.63;4963145;28;20043;-79
2023/03/18 02:27:00;;;;;;;;;;;;;;;9.51;100.00;98943.63;4904817;28;20042;-79
2023/03/18 02:29:38;;;;;;;8.45;1.65;;;;;;;9.57;100.00;98941.28;4959392;28;19914;-79
2023/03/18 02:32:13;;;;;;;8.50;1.70;;;;;;;9.60;100.00;98940.94;4933271;28;20165;-79
2023/03/18 02:34:43;;;;;;;14.88;1.73;;;;;;;9.61;100.00;98942.56;4936432;28;20035;-79
2023/03/18 02:37:11;;;;;;;13.07;1.85;;;;;;;9.59;100.00;98932.19;4939781;28;20045;-79
2023/03/18 02:39:41;;;;;;;14.10;2.25;;;;;;;9.60;100.00;98935.66;4923118;28;20038;-79
2023/03/18 02:42:13;;;;;;;11.57;1.75;;;;;;;9.65;100.00;98942.03;4949015;28;20105;-79
2023/03/18 02:44:47;;;;;;;13.15;1.60;;;;;;;9.65;100.00;98939.41;4945735;28;20030;-79
2023/03/18 02:47:35;;;;;;;11.32;1.80;;;;;;;9.67;100.00;98944.50;4971936;28;20038;-79
2023/03/18 02:50:05;;;;;;;12.02;2.33;;;;;;;9.65;100.00;98939.41;4947300;28;20745;-79
2023/03/18 02:52:35;;;;;;;12.88;1.83;;;;;;;9.68;100.00;98938.25;4937057;28;20050;-79
2023/03/18 02:55:02;;;;;;;13.98;2.17;;;;;;;9.66;100.00;98945.50;4927647;29;20058;-79
2023/03/18 02:57:31;;;;;;;13.63;1.90;;;;;;;9.66;100.00;98940.25;4903551;29;20043;-79
2023/03/18 02:59:59;;;;;;;20.23;2.05;;;;;;;9.61;100.00;98956.59;4938913;29;20049;-79
2023/03/18 03:02:27;;;;;;;17.27;2.80;;;;;;;9.61;100.00;98959.22;4928662;29;20490;-79
2023/03/18 03:04:55;;;;;;;13.00;2.28;;;;;;;9.55;100.00;98950.22;4933628;29;20027;-79
2023/03/18 03:07:27;;;;;;;12.45;1.73;;;;;;;9.53;100.00;98951.34;4910934;29;20130;-79
2023/03/18 03:09:57;;;;;;;17.65;2.72;;;;;;;9.48;100.00;98954.53;4918480;29;20115;-79
2023/03/18 03:12:24;;;;;;;21.40;2.38;;;;;;;9.51;100.00;98948.91;4910131;29;20070;-79
2023/03/18 03:14:56;;;;;;;15.93;2.30;;;;;;;9.55;100.00;98955.47;4928701;29;20511;-79
2023/03/18 03:17:28;;;;;;;14.90;1.92;;;;;;;9.55;100.00;98955.47;4924023;29;20031;-79
2023/03/18 03:19:56;;;;;;;9.77;1.73;;;;;;;9.52;100.00;98957.63;4939694;29;20046;-79
2023/03/18 03:22:27;;;;;;;13.02;2.45;;;;;;;9.54;100.00;98953.81;4909571;29;20054;-79
2023/03/18 03:24:57;;;;;;;9.55;2.40;;;;;;;9.59;100.00;98961.22;4950820;29;20272;-79
2023/03/18 03:27:28;;;;;;;13.75;2.13;;;;;;;9.63;100.00;98961.69;4922460;29;20036;-79
2023/03/18 03:29:57;;;;;;;13.27;1.88;;;;;;;9.66;100.00;98958.69;4928829;29;20480;-79
2023/03/18 03:32:28;;;;;;;9.13;1.65;;;;;;;9.70;100.00;98967.91;4910855;29;20042;-79
2023/03/18 03:34:58;;;;;;;20.55;2.22;;;;;;;9.70;100.00;98964.47;4918195;29;20122;-79
2023/03/18 03:37:27;;;;;;;10.82;2.05;;;;;;;9.68;100.00;98968.06;4932579;29;20039;-79
2023/03/18 03:39:54;;;;;;;12.35;2.67;;;;;;;9.64;100.00;98966.78;4917370;29;20067;-79
2023/03/18 03:42:24;;;;;;;21.40;2.97;;;;;;;9.65;100.00;98967.63;4929643;29;20035;-80
2023/03/18 03:44:52;;;;;;;17.67;3.88;;;;;;;9.58;100.00;98974.56;4918575;29;20031;-79
2023/03/18 03:47:21;;;;;;;12.48;2.40;;;;;;;9.58;100.00;98969.31;4926135;29;20032;-79
2023/03/18 03:49:51;;;;;;;11.13;2.15;;;;;;;9.55;100.00;98975.75;4913021;29;20044;-79
2023/03/18 03:52:20;;;;;;;20.55;3.38;;;;;;;9.58;100.00;98978.03;4902952;29;20051;-79
2023/03/18 03:54:49;;;;;;;18.02;3.67;;;;;;;9.58;100.00;98980.69;4958821;28;20046;-79
2023/03/18 03:57:19;;;;;;;16.90;3.55;;;;;;;9.64;100.00;98984.44;4968979;28;20039;-79
2023/03/18 03:59:48;;;;;;;19.63;3.88;;;;;;;9.64;100.00;98979.97;4937602;28;20030;-79
2023/03/18 04:02:22;;;;;;;9.50;2.35;;;;;;;9.63;100.00;98981.00;4959027;28;20058;-79
2023/03/18 04:04:52;;;;;;;20.75;4.50;;;;;;;9.63;100.00;98978.34;4936809;28;20058;-79
2023/03/18 04:07:27;;;;;;;10.57;3.67;;;;;;;9.59;100.00;98976.25;4951531;28;20134;-79
2023/03/18 04:09:56;;;;;;;16.63;3.40;;;;;;;9.61;100.00;98977.69;4931871;28;20117;-79
2023/03/18 04:12:24;;;;;;;13.88;3.25;;;;;;;9.60;100.00;98972.59;4965599;28;20050;-79
2023/03/18 04:14:56;;;;;;;15.48;3.05;;;;;;;9.59;100.00;98974.41;4937240;28;20045;-79
2023/03/18 04:17:24;;;;;;;23.38;3.50;;;;;;;9.60;100.00;98975.22;4916122;28;20038;-79
2023/03/18 04:19:52;;;;;;;20.52;3.70;;;;;;;9.55;100.00;98979.22;4945745;28;20447;-79
2023/03/18 04:22:22;;;;;;;26.58;3.95;;;;;;;9.51;100.00;98975.28;4944054;28;20551;-79
2023/03/18 04:24:52;;;;;;;20.58;4.45;;;;;;;9.50;100.00;98984.19;4942449;28;20047;-79
2023/03/18 04:27:21;;;;;;;20.30;3.72;;;;;;;9.50;100.00;98991.28;4945906;28;20043;-79
2023/03/18 04:29:50;;;;;;;19.60;3.40;;;;;;;9.47;100.00;98986.34;4948929;28;20066;-79
2023/03/18 04:32:19;;;;;;;18.65;3.58;;;;;;;9.48;100.00;98986.16;4943675;28;20037;-79
2023/03/18 04:34:47;;;;;;;25.13;3.35;;;;;;;9.46;100.00;98984.72;4947097;28;20034;-79
2023/03/18 04:37:18;;;;;;;18.83;3.92;;;;;;;9.48;100.00;98998.53;4940868;28;20023;-80
2023/03/18 04:39:49;;;;;;;16.02;3.50;;;;;;;9.48;100.00;98991.44;4936298;28;20166;-79
2023/03/18 04:42:18;;;;;;;25.20;3.85;;;;;;;9.49;100.00;98997.56;4924699;28;20107;-79
2023/03/18 04:44:46;;;;;;;24.45;3.40;;;;;;;9.47;100.00;98994.25;4970156;28;20027;-79
2023/03/18 04:47:17;;;;;;;23.52;3.78;;;;;;;9.49;100.00;99003.63;4953591;28;20035;-79
2023/03/18 04:49:49;;;;;;;18.77;3.55;;;;;;;9.50;100.00;99000.00;4958688;28;20047;-79
2023/03/18 04:52:19;;;;;;;29.65;3.65;;;;;;;9.49;100.00;98998.34;4949711;28;20039;-78
2023/03/18 04:54:48;;;;;;;18.60;3.08;;;;;;;9.48;100.00;98993.25;4937518;28;20046;-79
2023/03/18 04:57:17;;;;;;;15.43;2.83;;;;;;;9.43;100.00;99002.50;4953336;28;20125;-79
2023/03/18 04:59:50;;;;;;;17.70;3.50;;;;;;;9.41;100.00;99007.13;4954143;28;20479;-79
2023/03/18 05:02:19;;;;;;;16.92;4.00;;;;;;;9.40;100.00;99009.94;4953300;28;20031;-79
2023/03/18 05:04:47;;;;;;;19.63;3.80;;;;;;;9.38;100.00;99010.13;4949713;28;20050;-79
2023/03/18 05:07:16;;;;;;;17.60;3.83;;;;;;;9.42;100.00;99007.97;4951363;28;20035;-79
2023/03/18 05:09:54;;;;;;;14.80;3.53;;;;;;;9.39;100.00;99009.13;4943699;28;20045;-79
2023/03/18 05:12:24;;;;;;;29.08;4.78;;;;;;;9.41;100.00;99012.41;4949791;28;20102;-79
2023/03/18 05:14:52;;;;;;;20.58;4.38;;;;;;;9.42;100.00;99021.97;4968859;28;20039;-79
2023/03/18 05:17:20;;;;;;;25.75;4.20;;;;;;;9.43;100.00;99020.97;4928557;28;20039;-79
2023/03/18 05:19:56;;;;;;;21.75;4.93;;;;;;;9.42;100.00;99019.34;4946639;28;20035;-79
2023/03/18 05:22:26;;;;;;;21.20;4.22;;;;;;;9.44;100.00;99024.44;4957390;28;20041;-79
2023/03/18 05:25:10;;;;;;;26.15;4.45;;;;;;;9.43;100.00;99025.41;4951092;28;20049;-79
2023/03/18 05:27:40;;;;;;;17.27;4.65;;;;;;;9.43;100.00;99028.06;4970480;28;20035;-79
2023/03/18 05:30:16;;;;;;;30.52;4.47;;;;;;;9.44;100.00;99040.28;4957220;28;20038;-79
2023/03/18 05:32:48;;;;;;;20.27;4.07;;;;;;;9.39;100.00;99032.88;4956972;28;20035;-79
2023/03/18 05:35:18;;;;;;;20.60;5.28;;;;;;;9.42;100.00;99036.97;4933639;28;20506;-79
2023/03/18 05:37:49;;;;;;;22.80;4.65;;;;;;;9.39;100.00;99037.31;4946831;28;20030;-79
2023/03/18 05:40:19;;;;;;;13.02;3.70;;;;;;;9.40;100.00;99041.59;4952491;28;20028;-79
2023/03/18 05:43:00;;;;;;;20.45;4.68;;;;;;;9.38;100.00;99046.22;4936453;29;20039;-79
2023/03/18 05:45:54;;;;;;;21.92;4.13;;;;;;;9.42;100.00;99053.63;4950586;28;20086;-79
2023/03/18 05:48:34;;;;;;;23.58;4.63;;;;;;;9.40;100.00;99046.88;4954916;28;20034;-80
2023/03/18 05:51:07;;;;;;;19.50;4.10;;;;;;;9.44;100.00;99050.81;4932102;28;20038;-79
2023/03/18 05:53:37;;;;;;;19.27;3.70;;;;;;;9.41;100.00;99059.06;4949276;28;20473;-79
2023/03/18 05:56:15;;;;;;;22.73;3.75;;;;;;;9.44;100.00;99064.00;4932758;28;20033;-79
2023/03/18 05:58:46;;;;;;;17.85;3.90;;;;;;;9.46;100.00;99066.47;4940233;28;20118;-79
2023/03/18 06:01:29;;;;;;;15.88;3.53;;;;;;;9.47;100.00;99073.38;4934721;28;20058;-79
2023/03/18 06:03:57;;;;;;;18.40;3.88;;;;;;;9.46;100.00;99071.75;4955895;28;20038;-79
2023/03/18 06:06:27;;;;;;;17.17;3.67;;;;;;;9.47;100.00;99076.03;4935402;28;20054;-79
2023/03/18 06:08:55;;;;;;;20.50;4.35;;;;;;;9.45;100.00;99078.81;4936395;28;20035;-80
2023/03/18 06:11:24;;;;;;;17.27;3.80;;;;;;;9.47;100.00;99076.84;4964388;28;20063;-79
2023/03/18 06:13:52;;;;;;;14.95;3.28;;;;;;;9.46;100.00;99088.38;4944695;28;20491;-79
2023/03/18 06:16:20;;;;;;;12.95;3.47;;;;;;;9.46;100.00;99085.75;4940611;28;20042;-79
2023/03/18 06:18:49;;;;;;;10.30;3.20;;;;;;;9.45;100.00;99081.47;4964258;28;20124;-79
2023/03/18 06:21:17;;;;;;;16.40;3.65;;;;;;;9.46;100.00;99085.75;4954353;28;20024;-79
2023/03/18 06:23:45;;;;;;;16.73;3.88;;;;;;;9.45;100.00;99092.00;4936304;28;20050;-80
2023/03/18 06:26:14;;;;;;;11.40;3.35;;;;;;;9.46;100.00;99092.84;4953220;28;20035;-79
2023/03/18 06:28:47;;;;;;;18.20;3.92;;;;;;;9.43;100.00;99091.34;4954486;28;20038;-79
2023/03/18 06:31:18;;;;;;;14.13;3.55;;;;;;;9.43;100.00;99097.47;4966844;28;20558;-79
2023/03/18 06:33:45;;;;;;;10.45;2.85;;;;;;;9.42;100.00;99102.91;4939451;29;20436;-79
2023/03/18 06:36:18;;;;;;;17.52;4.13;;;;;;;9.45;100.00;99097.28;4951465;28;20032;-79
2023/03/18 06:38:50;;;;;;;17.80;3.00;;;;;;;9.43;100.00;99108.00;4954811;28;20039;-79
2023/03/18 06:41:21;;;;;;;12.38;3.83;;;;;;;9.42;100.00;99105.53;4937026;28;20085;-79
2023/03/18 06:44:08;;;;;;;12.52;3.30;;;;;;;9.39;100.00;99111.16;4933776;28;20028;-79
2023/03/18 06:46:36;;;;;;;17.05;3.42;;;;;;;9.39;100.00;99108.53;4886278;28;20039;-79
2023/03/18 06:49:06;;;;;;;22.17;3.50;;;;;;;9.40;100.00;99115.44;4951628;28;20045;-79
2023/03/18 06:51:38;;;;;;;12.00;2.50;;;;;;;9.35;100.00;99118.56;4938307;28;20408;-79
2023/03/18 06:54:08;;;;;;;10.55;2.58;;;;;;;9.32;100.00;99118.13;4929950;29;20051;-79
2023/03/18 06:56:40;;;;;;;7.57;2.20;;;;;;;9.32;100.00;99126.81;4936051;29;20179;-79
2023/03/18 06:59:15;;;;;;;9.38;2.45;;;;;;;9.33;100.00;99130.28;4932311;29;20492;-79
2023/03/18 07:01:43;;;;;;;12.68;2.80;;;;;;;9.34;100.00;99134.56;4903220;28;20099;-79
2023/03/18 07:04:13;;;;;;;11.85;2.55;;;;;;;9.35;100.00;99141.50;4931070;29;20384;-79
2023/03/18 07:06:41;;;;;;;16.48;2.85;;;;;;;9.35;100.00;99146.78;4947000;29;20042;-79
2023/03/18 07:09:14;;;;;;;12.80;3.20;;;;;;;9.38;100.00;99144.59;4934648;28;20554;-79
2023/03/18 07:11:45;;;;;;;11.15;2.70;;;;;;;9.43;100.00;99146.75;4931849;29;20205;-78
2023/03/18 07:14:18;;;;;;;12.55;2.65;;;;;;;9.43;100.00;99152.00;4939944;29;20034;-79
2023/03/18 07:16:46;;;;;;;15.18;3.50;;;;;;;9.46;100.00;99164.06;4932452;29;20027;-79
2023/03/18 07:19:17;;;;;;;13.70;3.00;;;;;;;9.50;100.00;99166.19;4912164;29;20047;-79
2023/03/18 07:21:46;;;;;;;11.63;2.90;;;;;;;9.52;100.00;99163.38;4928237;29;20032;-79
2023/03/18 07:24:16;;;;;;;13.65;3.30;;;;;;;9.57;100.00;99168.16;4916398;29;20540;-79
2023/03/18 07:26:44;;;;;;;14.85;4.15;;;;;;;9.59;100.00;99172.25;4947820;29;20150;-79
2023/03/18 07:29:12;;;;;;;13.77;3.53;;;;;;;9.62;100.00;99171.91;4934601;29;20479;-80
2023/03/18 07:31:39;;;;;;;17.52;3.83;;;;;;;9.61;100.00;99175.56;4952075;29;20514;-78
2023/03/18 07:34:09;;;;;;;14.23;3.42;;;;;;;9.64;100.00;99177.00;4916952;29;20028;-79
2023/03/18 07:36:39;;;;;;;10.73;2.97;;;;;;;9.67;100.00;99180.16;4912334;29;20052;-79
2023/03/18 07:39:09;;;;;;;10.50;3.47;;;;;;;9.70;100.00;99186.88;4910887;29;20050;-79
2023/03/18 07:41:37;;;;;;;11.38;2.90;;;;;;;9.68;100.00;99192.34;4941715;29;20160;-79
2023/03/18 07:44:06;;;;;;;10.30;3.20;;;;;;;9.66;100.00;99198.78;4928664;29;20050;-79
2023/03/18 07:46:34;;;;;;;18.40;3.88;;;;;;;9.63;100.00;99199.13;4928121;29;20036;-79
2023/03/18 07:49:04;;;;;;;14.32;3.83;;;;;;;9.62;100.00;99203.56;4932745;29;20039;-79
2023/03/18 07:51:34;;;;;;;11.95;2.95;;;;;;;9.62;100.00;99203.56;4942297;29;20068;-78
2023/03/18 07:54:04;;;;;;;16.40;3.17;;;;;;;9.61;100.00;99207.22;4951606;28;20169;-79
2023/03/18 07:56:34;;;;;;;12.43;2.78;;;;;;;9.62;100.00;99205.41;4936085;28;20047;-79
2023/03/18 07:59:02;;;;;;;8.02;2.28;;;;;;;9.62;100.00;99208.84;4970238;28;20107;-79
2023/03/18 08:01:31;;;;;;;15.30;2.80;;;;;;;9.60;100.00;99205.56;4966613;28;20114;-79
2023/03/18 08:04:00;;;;;;;12.25;2.88;;;;;;;9.64;100.00;99219.22;4936214;28;20050;-79
2023/03/18 08:06:28;;;;;;;10.93;2.58;;;;;;;9.64;100.00;99220.06;4954424;28;20053;-79
2023/03/18 08:08:57;;;;;;;9.18;2.08;;;;;;;9.68;100.00;99215.28;4943139;28;20034;-79
2023/03/18 08:11:25;;;;;;;9.82;2.20;;;;;;;9.66;100.00;99226.00;4931710;28;20039;-79
2023/03/18 08:13:54;;;;;;;7.50;2.00;;;;;;;9.69;100.00;99230.09;4952263;28;20046;-79
2023/03/18 08:16:22;;;;;;;12.63;2.42;;;;;;;9.68;100.00;99229.28;4961912;28;20507;-79
2023/03/18 08:18:50;;;;;;;6.55;2.20;;;;;;;9.69;100.00;99235.38;4962750;28;20233;-79
2023/03/18 08:21:18;;;;;;;8.93;2.20;;;;;;;9.71;100.00;99245.78;4962552;28;20527;-79
2023/03/18 08:23:46;;;;;;;9.40;2.45;;;;;;;9.74;100.00;99246.25;4927460;28;20046;-79
2023/03/18 08:26:14;;;;;;;8.15;2.13;;;;;;;9.77;100.00;99247.72;4935421;28;20518;-79
2023/03/18 08:28:42;;;;;;;10.63;1.95;;;;;;;9.83;100.00;99248.88;4970726;28;20542;-79
2023/03/18 08:31:10;;;;;;;10.52;2.03;;;;;;;9.83;100.00;99248.88;4958411;28;20094;-79
2023/03/18 08:33:40;;;;;;;5.53;2.13;;;;;;;9.89;100.00;99254.28;4932535;28;20602;-79
2023/03/18 08:36:08;;;;;;;8.27;2.13;;;;;;;9.94;100.00;99256.44;4950809;28;20034;-79
2023/03/18 08:38:38;;;;;;;8.52;2.08;;;;;;;9.96;100.00;99254.44;4929021;29;20387;-79
2023/03/18 08:41:05;;;;;;;10.20;2.55;;;;;;;9.95;100.00;99259.91;4967684;28;20053;-79
2023/03/18 08:43:33;;;;;;;7.57;2.08;;;;;;;10.00;100.00;99265.50;4936486;28;20038;-79
2023/03/18 08:46:01;;;;;;;7.82;2.00;;;;;;;10.01;100.00;99267.13;4950228;28;20105;-79
2023/03/18 08:48:31;;;;;;;6.55;1.95;;;;;;;10.03;100.00;99268.59;4952682;28;20097;-79
2023/03/18 08:51:09;;;;;;;5.43;2.00;;;;;;;10.09;100.00;99269.75;4943923;28;20043;-79
2023/03/18 08:53:39;;;;;;;7.18;1.92;;;;;;;10.12;100.00;99273.88;4916404;28;20463;-79
2023/03/18 08:56:08;;;;;;;7.82;1.90;;;;;;;10.15;100.00;99271.72;4954780;28;20031;-79
2023/03/18 08:58:36;;;;;;;8.90;1.95;;;;;;;10.14;100.00;99272.72;4965030;28;20130;-79
2023/03/18 09:01:06;;;;;;;15.82;2.55;;;;;;;10.23;100.00;99277.94;4938114;28;20034;-79
2023/03/18 09:03:35;;;;;;;7.18;1.75;;;;;;;10.24;100.00;99283.06;4952696;28;20122;-79
2023/03/18 09:06:04;;;;;;;7.78;2.28;;;;;;;10.26;100.00;99283.72;4941046;28;20063;-79
2023/03/18 09:08:32;;;;;;;7.80;2.10;;;;;;;10.21;100.00;99287.88;4935479;28;20403;-79
2023/03/18 09:11:00;;;;;;;6.82;2.50;;;;;;;10.21;100.00;99285.22;4951569;28;20395;-79
2023/03/18 09:13:28;;;;;;;5.93;2.38;;;;;;;10.17;100.00;99292.66;4967344;28;20126;-79
2023/03/18 09:15:58;;;;;;;11.48;2.83;;;;;;;10.17;100.00;99297.94;4952019;28;20035;-79
2023/03/18 09:18:28;;;;;;;8.68;2.35;;;;;;;10.13;100.00;99296.66;4959445;28;20054;-79
2023/03/18 09:20:58;;;;;;;11.25;2.90;;;;;;;10.15;100.00;99302.56;4964114;28;20032;-79
2023/03/18 09:23:28;;;;;;;11.13;2.97;;;;;;;10.21;100.00;99303.72;4939241;28;20047;-79
2023/03/18 09:25:58;;;;;;;10.13;2.80;;;;;;;10.25;100.00;99305.00;4934811;28;20117;-79
2023/03/18 09:28:28;;;;;;;11.60;3.20;;;;;;;10.24;100.00;99304.19;4969274;28;20178;-79
2023/03/18 09:30:57;;;;;;;11.90;3.60;;;;;;;10.24;100.00;99313.94;4966023;28;20062;-79
2023/03/18 09:33:25;;;;;;;13.25;3.80;;;;;;;10.18;100.00;99321.53;4960990;28;20058;-78
2023/03/18 09:35:53;;;;;;;6.97;2.83;;;;;;;10.22;100.00;99318.56;4951403;28;20394;-79
2023/03/18 09:38:22;;;;;;;14.15;3.70;;;;;;;10.22;100.00;99327.31;4965529;28;20547;-79
2023/03/18 09:41:17;;;;;;;9.70;3.10;;;;;;;10.30;100.00;99327.28;4965865;28;20054;-79
2023/03/18 09:44:14;;;;;;;12.65;3.80;;;;;;;10.32;100.00;99329.75;4950790;28;20042;-79
2023/03/18 09:47:09;;;;;;;10.82;2.88;;;;;;;10.32;100.00;99334.22;4953920;28;20070;-79
2023/03/18 09:49:37;;;;;;;12.93;2.60;;;;;;;10.28;100.00;99337.19;4932655;28;20043;-79
2023/03/18 09:52:44;;;;;;;9.25;3.22;;;;;;;10.33;100.00;99343.78;4949088;28;20035;-79
2023/03/18 09:55:28;;;;;;;11.37;3.33;;;;;;;10.32;100.00;99337.66;4961796;28;20212;-79
2023/03/18 09:58:02;;;;;;;13.80;2.95;;;;;;;10.32;100.00;99347.44;4935456;28;20129;-79
2023/03/18 10:00:36;;;;;;;5.20;2.50;;;;;;;10.33;100.00;99341.97;4920921;28;20043;-79
2023/03/18 10:03:15;;;;;;;4.65;1.42;;;;;;;10.33;100.00;99341.97;4918761;28;20075;-79
2023/03/18 10:05:56;;;;;;;2.25;0.98;;;;;;;10.31;100.00;99349.22;4945105;28;20086;-79
2023/03/18 10:08:53;;;;;;;2.47;0.90;;;;;;;10.29;100.00;99359.97;4939626;28;20043;-80
2023/03/18 10:11:26;;;;;;;0.88;0.30;;;;;;;10.20;100.00;99360.97;4945082;28;20186;-79
2023/03/18 10:14:19;;;;;;;0.45;0.20;;;;;;;9.98;100.00;99376.53;4932718;28;20043;-79
2023/03/18 10:17:16;;;;;;;1.00;0.20;;;;;;;9.80;100.00;99382.81;4937038;28;20046;-79
2023/03/18 10:19:54;;;;;;;0.25;0.00;;;;;;;9.58;100.00;99397.50;4925455;29;20039;-79
2023/03/18 10:23:01;;;;;;;0.15;0.10;;;;;;;9.48;100.00;99397.63;4918231;28;20042;-80
2023/03/18 10:25:31;;;;;;;0.20;0.10;;;;;;;9.28;100.00;99411.13;4933734;28;20055;-79
2023/03/18 10:28:23;;;;;;;2.40;0.20;;;;;;;9.23;100.00;99413.44;4918330;28;20045;-79
2023/03/18 10:31:06;;;;;;;0.15;0.05;;;;;;;9.25;100.00;99416.72;4919311;28;20039;-79
2023/03/18 10:33:55;;;;;;;0.52;0.13;;;;;;;9.18;100.00;99428.91;4946907;28;20101;-79
2023/03/18 10:36:36;;;;;;;0.20;0.20;;;;;;;9.12;100.00;99440.91;4929015;28;20403;-80
2023/03/18 10:39:10;;;;;;;0.10;0.10;;;;;;;8.98;100.00;99441.53;4934310;29;20023;-80
2023/03/18 10:41:42;;;;;;;0.10;0.00;;;;;;;8.81;100.00;99444.91;4917008;29;20046;-80
2023/03/18 10:44:25;;;;;;;1.20;0.08;;;;;;;8.73;100.00;99465.13;4947992;29;20038;-79
2023/03/18 10:47:09;;;;;;;0.57;0.20;;;;;;;8.62;100.00;99467.03;4915708;29;20043;-79
2023/03/18 10:49:42;;;;;;;0.20;0.10;;;;;;;8.56;100.00;99465.88;4923885;29;20044;-80
2023/03/18 10:52:38;;;;;;;0.20;0.20;;;;;;;8.42;100.00;99474.28;4963216;28;20039;-79
2023/03/18 10:55:18;;;;;;;0.75;0.73;;;;;;;8.31;100.00;99478.81;4940954;29;20043;-79
2023/03/18 10:57:48;;;;;;;0.00;0.00;;;;;;;8.32;100.00;99487.56;4931395;28;20041;-79
2023/03/18 11:00:27;;;;;;;0.30;0.03;;;;;;;8.42;100.00;99503.25;4941228;28;20033;-79
2023/03/18 11:02:56;;;;;;;0.20;0.10;;;;;;;8.49;100.00;99504.28;4948403;28;20027;-79
2023/03/18 11:05:32;;;;;;;0.95;0.13;;;;;;;8.61;100.00;99517.25;4936169;28;20039;-80
2023/03/18 11:08:04;;;;;;;0.00;0.00;;;;;;;8.62;100.00;99518.88;4942253;28;20530;-79
2023/03/18 11:10:38;;;;;;;0.00;0.00;;;;;;;8.62;100.00;99529.41;4934327;28;20047;-79
2023/03/18 11:13:06;;;;;;;0.20;0.10;;;;;;;8.61;100.00;99533.88;4955113;28;20435;-80
2023/03/18 11:15:41;;;;;;;0.75;0.10;;;;;;;8.67;100.00;99548.22;4955583;28;20066;-79
2023/03/18 11:18:23;;;;;;;0.10;0.10;;;;;;;8.66;100.00;99538.69;4920691;28;20050;-79
2023/03/18 11:21:03;;;;;;;14.52;10.30;;;;;;;8.66;100.00;99539.50;4936643;28;20066;-79
2023/03/18 11:24:07;;;;;;;21.63;18.23;;;;;;;8.68;100.00;99548.06;4965827;28;20073;-79
2023/03/18 11:26:47;;;;;;;2.03;1.92;;;;;;;8.79;100.00;99551.47;4945283;28;20104;-79
2023/03/18 11:29:21;;;;;;;0.30;0.30;;;;;;;8.76;100.00;99557.84;4964029;28;21104;-79
2023/03/18 11:31:52;;;;;;;0.65;0.65;;;;;;;8.79;100.00;99565.44;4949540;28;20039;-79
2023/03/18 11:34:21;;;;;;;1.10;0.30;;;;;;;8.71;100.00;99573.31;4963573;28;20039;-79
2023/03/18 11:37:05;;;;;;;0.40;0.10;;;;;;;8.71;100.00;99573.31;4960981;28;20042;-79
2023/03/18 11:39:36;;;;;;;0.20;0.10;;;;;;;8.72;100.00;99572.31;4963779;28;20031;-80
2023/03/18 11:42:18;;;;;;;0.00;0.00;;;;;;;8.69;100.00;99581.34;4949709;28;20837;-79
2023/03/18 11:44:55;;;;;;;0.22;0.00;;;;;;;8.69;100.00;99593.69;4947477;28;20038;-80
2023/03/18 11:47:35;;;;;;;0.20;0.10;;;;;;;8.60;100.00;99589.34;4886651;28;20034;-79
2023/03/18 11:50:18;;;;;;;0.15;0.10;;;;;;;8.58;100.00;99600.03;4945927;28;20386;-79
2023/03/18 11:52:55;;;;;;;0.45;0.10;;;;;;;8.63;100.00;99604.84;4962132;28;20042;-79